Time,TemperatureF,DewpointF,PressureIn,WindDirection,WindDirectionDegrees,WindSpeedMPH,WindSpeedGustMPH,Humidity,HourlyPrecipIn,Conditions,Clouds,dailyrainin,SoftwareType,DateUTC
2013-08-01 00:04:00,67.6,61.9,29.97,North,-999,0.0,0.7,82,0.00,,,0.01,pywws,2013-07-31 23:04:00,
2013-08-01 00:09:00,67.6,61.9,29.97,North,-999,0.0,0.7,82,0.00,,,0.00,pywws,2013-07-31 23:09:00,
2013-08-01 00:14:00,67.6,61.9,29.97,North,-999,0.0,0.7,82,0.00,,,0.00,pywws,2013-07-31 23:14:00,
2013-08-01 00:19:00,67.6,61.9,29.97,North,-999,0.0,1.6,82,0.00,,,0.00,pywws,2013-07-31 23:19:00,
2013-08-01 00:24:00,67.6,61.9,29.97,North,-999,0.0,0.7,82,0.00,,,0.00,pywws,2013-07-31 23:24:00,
2013-08-01 00:34:00,67.5,62.1,29.97,North,-999,0.0,0.7,83,0.00,,,0.00,pywws,2013-07-31 23:34:00,
2013-08-01 00:39:00,67.5,62.1,29.97,North,-999,0.0,0.0,83,0.00,,,0.00,pywws,2013-07-31 23:39:00,
2013-08-01 00:44:00,67.3,61.9,29.96,North,-999,0.0,0.7,83,0.00,,,0.00,pywws,2013-07-31 23:44:00,
2013-08-01 00:49:00,67.3,61.9,29.96,North,-999,0.0,0.0,83,0.00,,,0.00,pywws,2013-07-31 23:49:00,
2013-08-01 00:54:00,67.3,61.9,29.96,North,-999,0.0,0.0,83,0.00,,,0.00,pywws,2013-07-31 23:54:00,
2013-08-01 01:04:00,67.5,62.1,29.96,North,-999,0.0,0.0,83,0.00,,,0.00,pywws,2013-08-01 00:04:00,
2013-08-01 01:09:00,67.3,61.9,29.96,North,-999,0.0,0.7,83,0.00,,,0.00,pywws,2013-08-01 00:09:00,
2013-08-01 01:14:00,67.1,61.8,29.96,North,-999,0.0,0.0,83,0.00,,,0.00,pywws,2013-08-01 00:14:00,
2013-08-01 01:19:00,67.3,61.9,29.96,North,-999,0.0,0.7,83,0.00,,,0.00,pywws,2013-08-01 00:19:00,
2013-08-01 01:24:00,67.1,62.1,29.96,North,-999,0.0,0.0,84,0.00,,,0.00,pywws,2013-08-01 00:24:00,
2013-08-01 01:34:00,67.1,62.1,29.96,North,-999,0.0,0.0,84,0.00,,,0.00,pywws,2013-08-01 00:34:00,
2013-08-01 01:39:00,66.9,61.9,29.96,North,-999,0.0,0.0,84,0.00,,,0.00,pywws,2013-08-01 00:39:00,
2013-08-01 01:44:00,66.7,61.7,29.96,North,-999,0.0,1.6,84,0.00,,,0.00,pywws,2013-08-01 00:44:00,
2013-08-01 01:49:00,66.6,61.6,29.96,North,-999,0.0,0.0,84,0.00,,,0.00,pywws,2013-08-01 00:49:00,
2013-08-01 01:54:00,66.4,61.4,29.96,North,-999,0.0,0.0,84,0.00,,,0.00,pywws,2013-08-01 00:54:00,
2013-08-01 02:04:00,66.2,61.2,29.96,North,-999,0.0,0.0,84,0.00,,,0.00,pywws,2013-08-01 01:04:00,
2013-08-01 02:09:00,66.0,61.4,29.96,North,-999,0.0,0.7,85,0.00,,,0.00,pywws,2013-08-01 01:09:00,
2013-08-01 02:14:00,65.8,61.2,29.96,North,-999,0.0,0.0,85,0.00,,,0.00,pywws,2013-08-01 01:14:00,
2013-08-01 02:19:00,65.8,61.2,29.96,North,-999,0.0,0.0,85,0.00,,,0.00,pywws,2013-08-01 01:19:00,
2013-08-01 02:24:00,65.7,61.4,29.95,North,-999,0.0,0.0,86,0.00,,,0.00,pywws,2013-08-01 01:24:00,
2013-08-01 02:34:00,65.5,61.2,29.95,North,-999,0.0,0.0,86,0.00,,,0.00,pywws,2013-08-01 01:34:00,
2013-08-01 02:39:00,65.5,61.2,29.95,North,-999,0.0,0.0,86,0.00,,,0.00,pywws,2013-08-01 01:39:00,
2013-08-01 02:44:00,65.5,61.2,29.95,North,-999,0.0,0.7,86,0.00,,,0.00,pywws,2013-08-01 01:44:00,
2013-08-01 02:49:00,65.3,61.0,29.95,North,-999,0.0,0.0,86,0.00,,,0.00,pywws,2013-08-01 01:49:00,
2013-08-01 02:54:00,65.1,61.1,29.95,North,-999,0.0,0.7,87,0.00,,,0.00,pywws,2013-08-01 01:54:00,
2013-08-01 03:04:00,65.1,61.1,29.94,North,-999,0.0,0.7,87,0.00,,,0.00,pywws,2013-08-01 02:04:00,
2013-08-01 03:09:00,65.1,61.1,29.95,North,-999,0.0,0.0,87,0.00,,,0.00,pywws,2013-08-01 02:09:00,
2013-08-01 03:14:00,65.1,61.5,29.94,North,-999,0.0,0.0,88,0.00,,,0.00,pywws,2013-08-01 02:14:00,
2013-08-01 03:19:00,65.1,61.1,29.94,North,-999,0.0,0.0,87,0.00,,,0.00,pywws,2013-08-01 02:19:00,
2013-08-01 03:24:00,65.1,61.1,29.94,North,-999,0.0,0.0,87,0.00,,,0.00,pywws,2013-08-01 02:24:00,
2013-08-01 03:34:00,65.1,61.5,29.94,North,-999,0.0,0.0,88,0.00,,,0.00,pywws,2013-08-01 02:34:00,
2013-08-01 03:39:00,65.1,61.5,29.94,North,-999,0.0,0.0,88,0.00,,,0.00,pywws,2013-08-01 02:39:00,
2013-08-01 03:44:00,65.1,61.5,29.94,North,-999,0.0,0.7,88,0.00,,,0.00,pywws,2013-08-01 02:44:00,
2013-08-01 03:49:00,65.1,61.5,29.94,North,-999,0.0,0.0,88,0.00,,,0.00,pywws,2013-08-01 02:49:00,
2013-08-01 03:54:00,64.9,61.3,29.93,North,-999,0.0,0.0,88,0.00,,,0.00,pywws,2013-08-01 02:54:00,
2013-08-01 04:04:00,64.8,61.1,29.93,North,-999,0.0,0.0,88,0.00,,,0.00,pywws,2013-08-01 03:04:00,
2013-08-01 04:09:00,64.4,60.8,29.93,North,-999,0.0,0.0,88,0.00,,,0.00,pywws,2013-08-01 03:09:00,
2013-08-01 04:14:00,64.0,60.4,29.93,North,-999,0.0,0.0,88,0.00,,,0.00,pywws,2013-08-01 03:14:00,
2013-08-01 04:19:00,63.9,60.2,29.93,North,-999,0.0,0.0,88,0.00,,,0.00,pywws,2013-08-01 03:19:00,
2013-08-01 04:24:00,63.9,60.2,29.93,North,-999,0.0,0.0,88,0.00,,,0.00,pywws,2013-08-01 03:24:00,
2013-08-01 04:34:00,63.7,60.4,29.93,North,-999,0.0,0.0,89,0.00,,,0.00,pywws,2013-08-01 03:34:00,
2013-08-01 04:39:00,63.1,59.8,29.92,North,-999,0.0,0.0,89,0.00,,,0.00,pywws,2013-08-01 03:39:00,
2013-08-01 04:44:00,63.0,59.7,29.93,North,-999,0.0,0.0,89,0.00,,,0.00,pywws,2013-08-01 03:44:00,
2013-08-01 04:49:00,62.8,59.5,29.92,North,-999,0.0,0.0,89,0.00,,,0.00,pywws,2013-08-01 03:49:00,
2013-08-01 04:54:00,62.6,59.3,29.93,North,-999,0.0,0.0,89,0.00,,,0.00,pywws,2013-08-01 03:54:00,
2013-08-01 05:04:00,62.2,59.3,29.92,North,-999,0.0,0.0,90,0.00,,,0.00,pywws,2013-08-01 04:04:00,
2013-08-01 05:09:00,62.1,59.1,29.92,North,-999,0.0,0.0,90,0.00,,,0.00,pywws,2013-08-01 04:09:00,
2013-08-01 05:14:00,61.9,58.9,29.92,North,-999,0.0,0.0,90,0.00,,,0.00,pywws,2013-08-01 04:14:00,
2013-08-01 05:19:00,61.9,59.2,29.92,North,-999,0.0,0.0,91,0.00,,,0.00,pywws,2013-08-01 04:19:00,
2013-08-01 05:24:00,61.7,59.0,29.92,North,-999,0.0,0.0,91,0.00,,,0.00,pywws,2013-08-01 04:24:00,
2013-08-01 05:34:00,61.5,58.9,29.92,North,-999,0.0,0.0,91,0.00,,,0.00,pywws,2013-08-01 04:34:00,
2013-08-01 05:39:00,61.5,58.9,29.92,North,-999,0.0,0.0,91,0.00,,,0.00,pywws,2013-08-01 04:39:00,
2013-08-01 05:44:00,61.5,58.9,29.92,North,-999,0.0,0.0,91,0.00,,,0.00,pywws,2013-08-01 04:44:00,
2013-08-01 05:49:00,61.5,59.2,29.92,North,-999,0.0,0.0,92,0.00,,,0.00,pywws,2013-08-01 04:49:00,
2013-08-01 05:54:00,61.5,59.2,29.91,North,-999,0.0,0.0,92,0.00,,,0.00,pywws,2013-08-01 04:54:00,
2013-08-01 06:04:00,62.1,59.7,29.92,North,-999,0.0,0.0,92,0.00,,,0.00,pywws,2013-08-01 05:04:00,
2013-08-01 06:09:00,62.2,59.9,29.91,North,-999,0.0,0.7,92,0.00,,,0.00,pywws,2013-08-01 05:09:00,
2013-08-01 06:14:00,62.8,60.4,29.91,North,-999,0.0,0.7,92,0.00,,,0.00,pywws,2013-08-01 05:14:00,
2013-08-01 06:19:00,63.1,60.8,29.91,North,-999,0.0,0.0,92,0.00,,,0.00,pywws,2013-08-01 05:19:00,
2013-08-01 06:24:00,63.1,60.8,29.91,North,-999,0.0,0.0,92,0.00,,,0.00,pywws,2013-08-01 05:24:00,
2013-08-01 06:34:00,63.3,61.0,29.91,North,-999,0.0,1.6,92,0.00,,,0.00,pywws,2013-08-01 05:34:00,
2013-08-01 06:39:00,63.9,61.2,29.91,North,-999,0.0,1.6,91,0.00,,,0.00,pywws,2013-08-01 05:39:00,
2013-08-01 06:44:00,64.4,61.4,29.91,North,-999,0.0,1.6,90,0.00,,,0.00,pywws,2013-08-01 05:44:00,
2013-08-01 06:49:00,64.8,61.8,29.91,North,-999,0.0,1.6,90,0.00,,,0.00,pywws,2013-08-01 05:49:00,
2013-08-01 06:54:00,64.9,61.6,29.90,SE,135,0.7,3.8,89,0.00,,,0.00,pywws,2013-08-01 05:54:00,
2013-08-01 07:04:00,65.3,61.6,29.90,North,-999,0.0,0.7,88,0.00,,,0.00,pywws,2013-08-01 06:04:00,
2013-08-01 07:09:00,66.2,62.2,29.90,North,-999,0.0,0.7,87,0.00,,,0.00,pywws,2013-08-01 06:09:00,
2013-08-01 07:14:00,66.7,62.4,29.91,North,-999,0.0,0.0,86,0.00,,,0.00,pywws,2013-08-01 06:14:00,
2013-08-01 07:19:00,67.3,62.6,29.91,North,-999,0.0,0.7,85,0.00,,,0.00,pywws,2013-08-01 06:19:00,
2013-08-01 07:24:00,67.5,62.4,29.91,North,-999,0.0,0.7,84,0.00,,,0.00,pywws,2013-08-01 06:24:00,
2013-08-01 07:34:00,67.8,62.5,29.90,North,-999,0.0,0.7,83,0.00,,,0.00,pywws,2013-08-01 06:34:00,
2013-08-01 07:39:00,68.5,62.8,29.91,North,-999,0.0,3.1,82,0.00,,,0.00,pywws,2013-08-01 06:39:00,
2013-08-01 07:44:00,68.9,62.8,29.91,North,-999,0.0,0.0,81,0.00,,,0.00,pywws,2013-08-01 06:44:00,
2013-08-01 07:49:00,69.3,62.8,29.91,North,-999,0.0,0.0,80,0.00,,,0.00,pywws,2013-08-01 06:49:00,
2013-08-01 07:54:00,69.6,63.2,29.91,North,-999,0.0,2.2,80,0.00,,,0.00,pywws,2013-08-01 06:54:00,
2013-08-01 08:04:00,69.8,63.0,29.91,North,-999,0.0,0.7,79,0.00,,,0.00,pywws,2013-08-01 07:04:00,
2013-08-01 08:09:00,71.4,63.8,29.90,North,-999,0.0,0.7,77,0.00,,,0.00,pywws,2013-08-01 07:09:00,
2013-08-01 08:14:00,72.9,64.1,29.90,North,-999,0.0,0.7,74,0.00,,,0.00,pywws,2013-08-01 07:14:00,
2013-08-01 08:19:00,74.7,64.2,29.90,SW,225,0.7,3.8,70,0.00,,,0.00,pywws,2013-08-01 07:19:00,
2013-08-01 08:24:00,76.3,64.1,29.90,SE,135,1.6,5.4,66,0.00,,,0.00,pywws,2013-08-01 07:24:00,
2013-08-01 08:34:00,77.4,64.7,29.89,North,-999,0.0,0.7,65,0.00,,,0.00,pywws,2013-08-01 07:34:00,
2013-08-01 08:39:00,78.3,64.2,29.89,NE,45,0.7,4.5,62,0.00,,,0.00,pywws,2013-08-01 07:39:00,
2013-08-01 08:44:00,78.6,64.5,29.89,South,180,1.6,4.5,62,0.00,,,0.00,pywws,2013-08-01 07:44:00,
2013-08-01 08:49:00,79.7,64.6,29.89,NE,45,1.6,3.8,60,0.00,,,0.00,pywws,2013-08-01 07:49:00,
2013-08-01 08:54:00,80.2,64.6,29.89,NE,45,0.7,3.8,59,0.00,,,0.00,pywws,2013-08-01 07:54:00,
2013-08-01 09:04:00,81.1,64.9,29.88,North,-999,0.0,3.1,58,0.00,,,0.00,pywws,2013-08-01 08:04:00,
2013-08-01 09:09:00,81.5,65.3,29.88,NW,315,0.7,3.1,58,0.00,,,0.00,pywws,2013-08-01 08:09:00,
2013-08-01 09:14:00,82.8,64.9,29.88,SE,135,2.2,5.4,55,0.00,,,0.00,pywws,2013-08-01 08:14:00,
2013-08-01 09:19:00,82.9,65.1,29.88,North,0,2.2,5.4,55,0.00,,,0.00,pywws,2013-08-01 08:19:00,
2013-08-01 09:24:00,82.4,64.6,29.87,SE,135,1.6,3.8,55,0.00,,,0.00,pywws,2013-08-01 08:24:00,
2013-08-01 09:35:00,82.2,64.9,29.88,NE,45,1.6,3.8,56,0.00,,,0.00,pywws,2013-08-01 08:35:00,
2013-08-01 09:39:00,84.6,66.1,29.87,North,-999,0.0,1.6,54,0.00,,,0.00,pywws,2013-08-01 08:39:00,
2013-08-01 09:44:00,85.3,66.7,29.87,North,-999,0.0,1.6,54,0.00,,,0.00,pywws,2013-08-01 08:44:00,
2013-08-01 09:49:00,85.3,65.6,29.87,South,180,0.7,3.8,52,0.00,,,0.00,pywws,2013-08-01 08:49:00,
2013-08-01 09:54:00,86.0,65.7,29.87,West,270,0.7,6.0,51,0.00,,,0.00,pywws,2013-08-01 08:54:00,
2013-08-01 10:05:00,86.4,66.1,29.86,SE,135,1.6,4.5,51,0.00,,,0.00,pywws,2013-08-01 09:05:00,
2013-08-01 10:09:00,88.2,65.3,29.85,SW,225,3.8,10.7,47,0.00,,,0.00,pywws,2013-08-01 09:09:00,
2013-08-01 10:14:00,88.0,65.8,29.85,North,-999,0.0,1.6,48,0.00,,,0.00,pywws,2013-08-01 09:14:00,
2013-08-01 10:19:00,87.8,65.0,29.85,SW,225,0.7,2.2,47,0.00,,,0.00,pywws,2013-08-01 09:19:00,
2013-08-01 10:24:00,88.0,65.8,29.85,North,-999,0.0,2.2,48,0.00,,,0.00,pywws,2013-08-01 09:24:00,
2013-08-01 10:29:00,88.5,65.7,29.85,North,-999,0.0,1.6,47,0.00,,,0.00,pywws,2013-08-01 09:29:00,
2013-08-01 10:34:00,88.3,65.5,29.85,North,-999,0.0,0.7,47,0.00,,,0.00,pywws,2013-08-01 09:34:00,
2013-08-01 10:38:00,88.5,65.7,29.84,North,-999,0.0,1.6,47,0.00,,,0.00,pywws,2013-08-01 09:38:00,
2013-08-01 10:43:00,88.0,64.6,29.84,NE,45,0.7,4.5,46,0.00,,,0.00,pywws,2013-08-01 09:43:00,
2013-08-01 10:48:00,87.1,65.0,29.84,SW,225,0.7,5.4,48,0.00,,,0.00,pywws,2013-08-01 09:48:00,
2013-08-01 10:53:00,86.5,65.1,29.84,North,-999,0.0,1.6,49,0.00,,,0.00,pywws,2013-08-01 09:53:00,
2013-08-01 11:07:00,86.7,65.8,29.83,SW,225,0.7,2.2,50,0.00,,,0.00,pywws,2013-08-01 10:07:00,
2013-08-01 11:09:00,86.4,66.1,29.83,North,0,0.7,2.2,51,0.00,,,0.00,pywws,2013-08-01 10:09:00,
2013-08-01 11:14:00,86.4,66.1,29.83,West,270,0.7,4.5,51,0.00,,,0.00,pywws,2013-08-01 10:14:00,
2013-08-01 11:19:00,86.4,66.1,29.83,SE,135,0.7,3.1,51,0.00,,,0.00,pywws,2013-08-01 10:19:00,
2013-08-01 11:24:00,86.4,65.5,29.83,North,-999,0.0,1.6,50,0.00,,,0.00,pywws,2013-08-01 10:24:00,
2013-08-01 11:34:00,86.5,65.7,29.82,South,180,1.6,5.4,50,0.00,,,0.00,pywws,2013-08-01 10:34:00,
2013-08-01 11:39:00,86.4,65.5,29.82,North,-999,0.0,2.2,50,0.00,,,0.00,pywws,2013-08-01 10:39:00,
2013-08-01 11:44:00,86.2,65.9,29.82,SW,225,0.7,3.1,51,0.00,,,0.00,pywws,2013-08-01 10:44:00,
2013-08-01 11:49:00,86.2,65.9,29.82,North,-999,0.0,1.6,51,0.00,,,0.00,pywws,2013-08-01 10:49:00,
2013-08-01 11:54:00,86.2,65.9,29.82,West,270,1.6,3.8,51,0.00,,,0.00,pywws,2013-08-01 10:54:00,
2013-08-01 12:05:00,86.4,66.1,29.82,North,0,0.7,2.2,51,0.00,,,0.00,pywws,2013-08-01 11:05:00,
2013-08-01 12:09:00,86.4,67.2,29.82,SE,135,0.7,3.1,53,0.00,,,0.00,pywws,2013-08-01 11:09:00,
2013-08-01 12:14:00,86.5,66.8,29.81,South,180,2.2,6.0,52,0.00,,,0.00,pywws,2013-08-01 11:14:00,
2013-08-01 12:19:00,86.5,66.8,29.81,SW,225,0.7,4.5,52,0.00,,,0.00,pywws,2013-08-01 11:19:00,
2013-08-01 12:24:00,86.7,67.0,29.81,SE,135,2.2,9.2,52,0.00,,,0.00,pywws,2013-08-01 11:24:00,
2013-08-01 12:35:00,87.1,65.6,29.81,SW,225,0.7,3.1,49,0.00,,,0.00,pywws,2013-08-01 11:35:00,
2013-08-01 12:39:00,87.6,66.1,29.80,North,-999,0.0,3.1,49,0.00,,,0.00,pywws,2013-08-01 11:39:00,
2013-08-01 12:44:00,87.4,65.9,29.80,North,-999,0.0,1.6,49,0.00,,,0.00,pywws,2013-08-01 11:44:00,
2013-08-01 12:49:00,87.6,66.1,29.80,SE,135,0.7,2.2,49,0.00,,,0.00,pywws,2013-08-01 11:49:00,
2013-08-01 12:54:00,88.0,64.6,29.80,WSW,248,0.7,3.8,46,0.00,,,0.00,pywws,2013-08-01 11:54:00,
2013-08-01 13:06:00,88.0,65.2,29.80,North,-999,0.0,2.2,47,0.00,,,0.00,pywws,2013-08-01 12:06:00,
2013-08-01 13:09:00,87.4,65.3,29.79,North,-999,0.0,2.2,48,0.00,,,0.00,pywws,2013-08-01 12:09:00,
2013-08-01 13:14:00,87.6,64.9,29.79,NE,45,0.7,5.4,47,0.00,,,0.00,pywws,2013-08-01 12:14:00,
2013-08-01 13:19:00,87.4,65.9,29.79,SE,135,1.6,4.5,49,0.00,,,0.00,pywws,2013-08-01 12:19:00,
2013-08-01 13:24:00,87.6,65.5,29.78,West,270,1.6,6.0,48,0.00,,,0.00,pywws,2013-08-01 12:24:00,
2013-08-01 13:34:00,87.4,64.7,29.78,SW,225,1.6,5.4,47,0.00,,,0.00,pywws,2013-08-01 12:34:00,
2013-08-01 13:39:00,95.0,72.2,29.78,West,270,1.6,3.8,48,0.00,,,0.00,pywws,2013-08-01 12:39:00,
2013-08-01 13:44:00,88.2,65.3,29.78,SE,135,0.7,1.6,47,0.00,,,0.00,pywws,2013-08-01 12:44:00,
2013-08-01 13:49:00,88.3,64.9,29.78,North,-999,0.0,3.1,46,0.00,,,0.00,pywws,2013-08-01 12:49:00,
2013-08-01 13:54:00,88.3,64.3,29.78,SW,225,0.7,3.1,45,0.00,,,0.00,pywws,2013-08-01 12:54:00,
2013-08-01 14:06:00,88.7,64.6,29.78,West,270,0.7,2.2,45,0.00,,,0.00,pywws,2013-08-01 13:06:00,
2013-08-01 14:09:00,89.1,63.6,29.78,North,-999,0.0,2.2,43,0.00,,,0.00,pywws,2013-08-01 13:09:00,
2013-08-01 14:14:00,88.9,63.4,29.77,SW,225,0.7,3.1,43,0.00,,,0.00,pywws,2013-08-01 13:14:00,
2013-08-01 14:19:00,88.9,62.8,29.78,SW,225,0.7,3.1,42,0.00,,,0.00,pywws,2013-08-01 13:19:00,
2013-08-01 14:24:00,88.9,62.1,29.77,South,180,0.7,3.1,41,0.00,,,0.00,pywws,2013-08-01 13:24:00,
2013-08-01 14:35:00,89.1,61.6,29.77,SW,225,2.2,6.0,40,0.00,,,0.00,pywws,2013-08-01 13:35:00,
2013-08-01 14:39:00,89.2,62.4,29.77,North,-999,0.0,1.6,41,0.00,,,0.00,pywws,2013-08-01 13:39:00,
2013-08-01 14:44:00,89.2,61.0,29.77,SW,225,0.7,4.5,39,0.00,,,0.00,pywws,2013-08-01 13:44:00,
2013-08-01 14:49:00,89.1,61.6,29.77,West,270,0.7,1.6,40,0.00,,,0.00,pywws,2013-08-01 13:49:00,
2013-08-01 14:54:00,89.2,61.7,29.77,NE,45,1.6,5.4,40,0.00,,,0.00,pywws,2013-08-01 13:54:00,
2013-08-01 15:04:00,89.4,60.4,29.77,NW,315,0.7,2.2,38,0.00,,,0.00,pywws,2013-08-01 14:04:00,
2013-08-01 15:09:00,89.2,60.3,29.76,SW,225,1.6,4.5,38,0.00,,,0.00,pywws,2013-08-01 14:09:00,
2013-08-01 15:14:00,89.4,61.2,29.76,North,-999,0.0,2.2,39,0.00,,,0.00,pywws,2013-08-01 14:14:00,
2013-08-01 15:19:00,89.8,60.7,29.76,NW,315,1.6,3.8,38,0.00,,,0.00,pywws,2013-08-01 14:19:00,
2013-08-01 15:24:00,93.2,63.0,29.76,NE,45,0.7,1.6,37,0.00,,,0.00,pywws,2013-08-01 14:24:00,
2013-08-01 15:34:00,90.0,60.2,29.76,SW,225,1.6,4.5,37,0.00,,,0.00,pywws,2013-08-01 14:34:00,
2013-08-01 15:38:00,90.1,59.5,29.75,South,180,1.6,3.1,36,0.00,,,0.00,pywws,2013-08-01 14:38:00,
2013-08-01 15:43:00,90.1,61.1,29.75,North,-999,0.0,0.7,38,0.00,,,0.00,pywws,2013-08-01 14:43:00,
2013-08-01 15:48:00,90.0,60.9,29.75,SSW,202,1.6,2.2,38,0.00,,,0.00,pywws,2013-08-01 14:48:00,
2013-08-01 15:53:00,90.0,60.2,29.75,West,270,1.6,4.5,37,0.00,,,0.00,pywws,2013-08-01 14:53:00,
2013-08-01 15:58:00,89.8,60.0,29.75,SW,225,0.7,3.1,37,0.00,,,0.00,pywws,2013-08-01 14:58:00,
2013-08-01 16:03:00,90.0,60.9,29.75,SW,225,0.7,3.1,38,0.00,,,0.00,pywws,2013-08-01 15:03:00,
2013-08-01 16:09:00,89.8,60.0,29.75,NE,45,1.6,3.8,37,0.00,,,0.00,pywws,2013-08-01 15:09:00,
2013-08-01 16:14:00,89.6,60.6,29.75,North,-999,0.0,2.2,38,0.00,,,0.00,pywws,2013-08-01 15:14:00,
2013-08-01 16:19:00,89.6,59.8,29.75,NW,315,0.7,2.2,37,0.00,,,0.00,pywws,2013-08-01 15:19:00,
2013-08-01 16:24:00,89.8,61.5,29.74,North,-999,0.0,3.1,39,0.00,,,0.00,pywws,2013-08-01 15:24:00,
2013-08-01 16:29:00,89.8,59.2,29.74,West,270,0.7,2.2,36,0.00,,,0.00,pywws,2013-08-01 15:29:00,
2013-08-01 16:38:00,90.3,58.9,29.74,NW,315,0.7,3.1,35,0.00,,,0.00,pywws,2013-08-01 15:38:00,
2013-08-01 16:39:00,90.0,59.4,29.74,North,-999,1.6,5.4,36,0.00,,,0.00,pywws,2013-08-01 15:39:00,
2013-08-01 16:43:00,90.1,57.1,29.74,South,180,1.6,3.8,33,0.00,,,0.00,pywws,2013-08-01 15:43:00,
2013-08-01 16:48:00,90.1,57.9,29.73,SE,135,1.6,3.1,34,0.00,,,0.00,pywws,2013-08-01 15:48:00,
2013-08-01 16:53:00,90.5,58.3,29.73,WNW,292,0.7,3.1,34,0.00,,,0.00,pywws,2013-08-01 15:53:00,
2013-08-01 17:03:00,91.4,58.2,29.73,SE,135,1.6,5.4,33,0.00,,,0.00,pywws,2013-08-01 16:03:00,
2013-08-01 17:06:00,91.2,58.9,29.73,North,-999,0.0,2.2,34,0.00,,,0.00,pywws,2013-08-01 16:06:00,
2013-08-01 17:09:00,91.6,60.0,29.73,West,270,2.2,6.9,35,0.00,,,0.00,pywws,2013-08-01 16:09:00,
2013-08-01 17:14:00,91.2,58.9,29.72,SW,225,1.6,3.1,34,0.00,,,0.00,pywws,2013-08-01 16:14:00,
2013-08-01 17:19:00,91.4,59.9,29.73,SW,225,1.6,4.5,35,0.00,,,0.00,pywws,2013-08-01 16:19:00,
2013-08-01 17:24:00,91.2,60.5,29.72,North,-999,0.0,1.6,36,0.00,,,0.00,pywws,2013-08-01 16:24:00,
2013-08-01 17:29:00,91.2,60.5,29.72,North,-999,0.0,2.2,36,0.00,,,0.00,pywws,2013-08-01 16:29:00,
2013-08-01 17:34:00,91.4,60.6,29.72,South,180,0.7,3.1,36,0.00,,,0.00,pywws,2013-08-01 16:34:00,
2013-08-01 17:38:00,91.2,61.3,29.72,South,180,2.2,3.8,37,0.00,,,0.00,pywws,2013-08-01 16:38:00,
2013-08-01 17:43:00,91.0,61.9,29.72,North,-999,0.0,2.2,38,0.00,,,0.00,pywws,2013-08-01 16:43:00,
2013-08-01 17:48:00,90.9,62.4,29.72,SW,225,1.6,3.1,39,0.00,,,0.00,pywws,2013-08-01 16:48:00,
2013-08-01 17:53:00,90.5,62.8,29.72,SW,225,0.7,3.8,40,0.00,,,0.00,pywws,2013-08-01 16:53:00,
2013-08-01 17:58:00,90.5,62.8,29.72,West,270,0.7,2.2,40,0.00,,,0.00,pywws,2013-08-01 16:58:00,
2013-08-01 18:03:00,90.7,63.0,29.72,SE,135,0.7,3.1,40,0.00,,,0.00,pywws,2013-08-01 17:03:00,
2013-08-01 18:09:00,90.9,63.2,29.72,SW,225,2.2,6.0,40,0.00,,,0.00,pywws,2013-08-01 17:09:00,
2013-08-01 18:14:00,90.3,63.4,29.72,SE,135,1.6,4.5,41,0.00,,,0.00,pywws,2013-08-01 17:14:00,
2013-08-01 18:19:00,90.1,63.2,29.72,North,0,1.6,3.1,41,0.00,,,0.00,pywws,2013-08-01 17:19:00,
2013-08-01 18:24:00,90.1,63.9,29.72,South,180,0.7,4.5,42,0.00,,,0.00,pywws,2013-08-01 17:24:00,
2013-08-01 18:29:00,90.0,63.7,29.71,North,-999,0.0,0.7,42,0.00,,,0.00,pywws,2013-08-01 17:29:00,
2013-08-01 18:34:00,90.0,63.7,29.71,North,-999,0.0,2.2,42,0.00,,,0.00,pywws,2013-08-01 17:34:00,
2013-08-01 18:39:00,90.0,64.4,29.71,North,-999,0.0,1.6,43,0.00,,,0.00,pywws,2013-08-01 17:39:00,
2013-08-01 18:44:00,90.3,64.7,29.71,North,-999,0.0,1.6,43,0.00,,,0.00,pywws,2013-08-01 17:44:00,
2013-08-01 18:49:00,90.7,63.7,29.71,South,180,0.7,3.8,41,0.00,,,0.00,pywws,2013-08-01 17:49:00,
2013-08-01 18:54:00,91.6,64.5,29.71,SW,225,1.6,4.5,41,0.00,,,0.00,pywws,2013-08-01 17:54:00,
2013-08-01 18:59:00,91.6,63.8,29.70,SW,225,1.6,5.4,40,0.00,,,0.00,pywws,2013-08-01 17:59:00,
2013-08-01 19:04:00,91.6,63.8,29.71,SW,225,1.6,5.4,40,0.00,,,0.00,pywws,2013-08-01 18:04:00,
2013-08-01 19:09:00,91.8,64.0,29.70,North,-999,0.0,1.6,40,0.00,,,0.00,pywws,2013-08-01 18:09:00,
2013-08-01 19:14:00,91.4,63.6,29.70,North,-999,0.0,1.6,40,0.00,,,0.00,pywws,2013-08-01 18:14:00,
2013-08-01 19:19:00,91.6,63.8,29.71,SE,135,0.7,3.1,40,0.00,,,0.00,pywws,2013-08-01 18:19:00,
2013-08-01 19:24:00,91.0,63.3,29.71,SW,225,0.7,3.1,40,0.00,,,0.00,pywws,2013-08-01 18:24:00,
2013-08-01 19:29:00,90.3,63.4,29.71,North,-999,0.0,1.6,41,0.00,,,0.00,pywws,2013-08-01 18:29:00,
2013-08-01 19:34:00,90.3,63.4,29.71,North,-999,0.0,1.6,41,0.00,,,0.00,pywws,2013-08-01 18:34:00,
2013-08-01 19:39:00,88.9,62.8,29.71,SE,135,0.7,3.1,42,0.00,,,0.00,pywws,2013-08-01 18:39:00,
2013-08-01 19:44:00,88.2,62.8,29.70,North,-999,0.0,1.6,43,0.00,,,0.00,pywws,2013-08-01 18:44:00,
2013-08-01 19:49:00,88.0,63.3,29.71,North,-999,0.0,0.7,44,0.00,,,0.00,pywws,2013-08-01 18:49:00,
2013-08-01 19:54:00,87.8,63.8,29.71,North,-999,0.0,0.7,45,0.00,,,0.00,pywws,2013-08-01 18:54:00,
2013-08-01 19:59:00,87.3,63.3,29.71,SE,135,1.6,3.8,45,0.00,,,0.00,pywws,2013-08-01 18:59:00,
2013-08-01 20:04:00,87.3,63.3,29.71,SE,135,1.6,3.8,45,0.00,,,0.00,pywws,2013-08-01 19:04:00,
2013-08-01 20:09:00,86.7,63.4,29.71,North,-999,0.0,1.6,46,0.00,,,0.00,pywws,2013-08-01 19:09:00,
2013-08-01 20:14:00,86.4,63.7,29.71,North,-999,0.0,0.7,47,0.00,,,0.00,pywws,2013-08-01 19:14:00,
2013-08-01 20:19:00,86.0,64.0,29.71,North,-999,0.0,0.0,48,0.00,,,0.00,pywws,2013-08-01 19:19:00,
2013-08-01 20:24:00,85.8,63.8,29.71,North,-999,0.0,1.6,48,0.00,,,0.00,pywws,2013-08-01 19:24:00,
2013-08-01 20:29:00,85.3,62.7,29.72,North,-999,0.0,1.6,47,0.00,,,0.00,pywws,2013-08-01 19:29:00,
2013-08-01 20:34:00,85.1,62.6,29.71,North,-999,0.0,0.0,47,0.00,,,0.00,pywws,2013-08-01 19:34:00,
2013-08-01 20:39:00,84.7,62.8,29.72,North,-999,0.0,0.0,48,0.00,,,0.00,pywws,2013-08-01 19:39:00,
2013-08-01 20:44:00,84.2,62.4,29.72,North,-999,0.0,0.0,48,0.00,,,0.00,pywws,2013-08-01 19:44:00,
2013-08-01 20:49:00,83.8,62.0,29.72,North,-999,0.0,0.0,48,0.00,,,0.00,pywws,2013-08-01 19:49:00,
2013-08-01 20:54:00,83.7,61.9,29.72,North,-999,0.0,0.0,48,0.00,,,0.00,pywws,2013-08-01 19:54:00,
2013-08-01 20:59:00,83.3,62.1,29.72,North,-999,0.0,0.7,49,0.00,,,0.00,pywws,2013-08-01 19:59:00,
2013-08-01 21:04:00,83.1,62.0,29.72,North,-999,0.0,0.7,49,0.00,,,0.00,pywws,2013-08-01 20:04:00,
2013-08-01 21:09:00,82.8,61.6,29.73,North,-999,0.0,0.0,49,0.00,,,0.00,pywws,2013-08-01 20:09:00,
2013-08-01 21:14:00,82.6,62.0,29.72,North,-999,0.0,1.6,50,0.00,,,0.00,pywws,2013-08-01 20:14:00,
2013-08-01 21:19:00,82.4,61.9,29.73,North,-999,0.0,0.7,50,0.00,,,0.00,pywws,2013-08-01 20:19:00,
2013-08-01 21:24:00,82.2,62.3,29.73,North,-999,0.0,0.0,51,0.00,,,0.00,pywws,2013-08-01 20:24:00,
2013-08-01 21:29:00,81.9,62.5,29.73,North,-999,0.0,0.0,52,0.00,,,0.00,pywws,2013-08-01 20:29:00,
2013-08-01 21:34:00,81.5,62.2,29.73,North,-999,0.0,0.7,52,0.00,,,0.00,pywws,2013-08-01 20:34:00,
2013-08-01 21:39:00,81.1,62.4,29.73,North,-999,0.0,0.0,53,0.00,,,0.00,pywws,2013-08-01 20:39:00,
2013-08-01 21:44:00,81.0,62.7,29.73,North,-999,0.0,0.0,54,0.00,,,0.00,pywws,2013-08-01 20:44:00,
2013-08-01 21:49:00,80.8,62.6,29.73,North,-999,0.0,0.0,54,0.00,,,0.00,pywws,2013-08-01 20:49:00,
2013-08-01 21:54:00,80.6,62.4,29.73,North,-999,0.0,0.0,54,0.00,,,0.00,pywws,2013-08-01 20:54:00,
2013-08-01 22:04:00,80.4,62.7,29.74,North,-999,0.0,0.0,55,0.00,,,0.00,pywws,2013-08-01 21:04:00,
2013-08-01 22:09:00,79.9,62.8,29.74,North,-999,0.0,0.7,56,0.00,,,0.00,pywws,2013-08-01 21:09:00,
2013-08-01 22:14:00,79.7,63.1,29.75,North,-999,0.0,0.0,57,0.00,,,0.00,pywws,2013-08-01 21:14:00,
2013-08-01 22:19:00,79.5,62.9,29.75,North,-999,0.0,0.7,57,0.00,,,0.00,pywws,2013-08-01 21:19:00,
2013-08-01 22:24:00,79.5,62.9,29.75,North,-999,0.0,0.0,57,0.00,,,0.00,pywws,2013-08-01 21:24:00,
2013-08-01 22:34:00,79.2,63.1,29.75,North,0,0.7,3.8,58,0.00,,,0.00,pywws,2013-08-01 21:34:00,
2013-08-01 22:39:00,78.6,63.1,29.75,North,-999,0.0,1.6,59,0.00,,,0.00,pywws,2013-08-01 21:39:00,
2013-08-01 22:44:00,78.4,62.9,29.75,North,-999,0.0,0.0,59,0.00,,,0.00,pywws,2013-08-01 21:44:00,
2013-08-01 22:49:00,78.3,63.2,29.76,North,-999,0.0,3.1,60,0.00,,,0.00,pywws,2013-08-01 21:49:00,
2013-08-01 22:54:00,77.9,62.9,29.76,North,-999,0.0,0.7,60,0.00,,,0.00,pywws,2013-08-01 21:54:00,
2013-08-01 23:04:00,77.7,63.2,29.76,North,-999,0.0,2.2,61,0.00,,,0.00,pywws,2013-08-01 22:04:00,
2013-08-01 23:09:00,77.4,63.3,29.76,North,-999,0.0,0.0,62,0.00,,,0.00,pywws,2013-08-01 22:09:00,
2013-08-01 23:14:00,77.0,63.0,29.76,North,-999,0.0,0.0,62,0.00,,,0.00,pywws,2013-08-01 22:14:00,
2013-08-01 23:19:00,76.8,63.3,29.76,North,-999,0.0,0.7,63,0.00,,,0.00,pywws,2013-08-01 22:19:00,
2013-08-01 23:24:00,76.6,63.1,29.76,North,-999,0.0,0.0,63,0.00,,,0.00,pywws,2013-08-01 22:24:00,
2013-08-01 23:35:00,76.5,62.5,29.76,North,-999,0.0,0.0,62,0.00,,,0.00,pywws,2013-08-01 22:35:00,
2013-08-01 23:39:00,76.1,61.2,29.76,North,-999,0.0,0.7,60,0.00,,,0.00,pywws,2013-08-01 22:39:00,
2013-08-01 23:44:00,75.7,60.4,29.76,North,-999,0.0,0.0,59,0.00,,,0.00,pywws,2013-08-01 22:44:00,
2013-08-01 23:49:00,75.4,59.6,29.77,North,-999,0.0,1.6,58,0.00,,,0.00,pywws,2013-08-01 22:49:00,
2013-08-01 23:54:00,75.2,59.4,29.77,North,-999,0.0,0.0,58,0.00,,,0.00,pywws,2013-08-01 22:54:00,